TAP6LX LPPT-ELLX
Flight info
| Callsign | TAP6LX |
|---|---|
| Flight time | 2h 6m |
| Altitude | 34000 |
| Route | IXIDA DCT TOSDI DCT ZMR DCT NUBLO/N0430F360 DCT RONSI DCT DELOG DCT PEXOD DCT DIDIG DCT TIRAV DCT ERJAZ DCT PIWIZ DCT TSU UM163 LEQOS DCT CTL DCT MMD |
| Aircraft | A320/M-SDE3FGHIRWY/LB1 |
Departure
| Time | 2026-04-28 19:03 |
|---|---|
| Airport | Lisbon Humberto Delgado Airport (LPPT) |
Arrival
| Time | 2026-04-28 21:09 |
|---|---|
| Airport | Luxembourg-Findel International Airport (ELLX) |
| Time | Latitude | Longitude | Altitude | Speed | Heading |
|---|---|---|---|---|---|
| 2026-04-28 18:51 | 38.77488 | -9.13157 | 337 ft | 0 kts | 81° |
| 2026-04-28 18:54 | 38.77485 | -9.13184 | 333 ft | 4 kts | 80° |
| 2026-04-28 18:54 | 38.77480 | -9.13218 | 333 ft | 4 kts | 79° |
| 2026-04-28 18:54 | 38.77476 | -9.13252 | 333 ft | 4 kts | 92° |
| 2026-04-28 18:54 | 38.77482 | -9.13284 | 334 ft | 4 kts | 130° |
| 2026-04-28 18:55 | 38.77495 | -9.13297 | 333 ft | 1 kts | 168° |
| 2026-04-28 18:55 | 38.77498 | -9.13298 | 333 ft | 0 kts | 168° |
| 2026-04-28 18:57 | 38.77500 | -9.13298 | 333 ft | 0 kts | 168° |
| 2026-04-28 18:57 | 38.77482 | -9.13293 | 334 ft | 7 kts | 168° |
| 2026-04-28 18:58 | 38.77437 | -9.13281 | 338 ft | 6 kts | 168° |
| 2026-04-28 18:58 | 38.77436 | -9.13281 | 338 ft | 0 kts | 168° |
| 2026-04-28 18:58 | 38.77401 | -9.13272 | 336 ft | 19 kts | 169° |
| 2026-04-28 18:58 | 38.77327 | -9.13317 | 338 ft | 10 kts | 252° |
| 2026-04-28 18:59 | 38.77283 | -9.13358 | 346 ft | 7 kts | 187° |
| 2026-04-28 18:59 | 38.77158 | -9.13334 | 341 ft | 27 kts | 168° |
| 2026-04-28 18:59 | 38.76973 | -9.13284 | 341 ft | 28 kts | 167° |
| 2026-04-28 18:59 | 38.76794 | -9.13242 | 340 ft | 22 kts | 187° |
| 2026-04-28 19:00 | 38.76726 | -9.13392 | 346 ft | 19 kts | 233° |
| 2026-04-28 19:00 | 38.76646 | -9.13520 | 345 ft | 19 kts | 257° |
| 2026-04-28 19:00 | 38.76619 | -9.13702 | 346 ft | 24 kts | 258° |
| 2026-04-28 19:00 | 38.76583 | -9.13927 | 352 ft | 26 kts | 259° |
| 2026-04-28 19:01 | 38.76562 | -9.14158 | 347 ft | 26 kts | 284° |
| 2026-04-28 19:01 | 38.76624 | -9.14339 | 332 ft | 17 kts | 295° |
| 2026-04-28 19:01 | 38.76676 | -9.14375 | 337 ft | 0 kts | 19° |
| 2026-04-28 19:02 | 38.76685 | -9.14370 | 333 ft | 10 kts | 22° |
| 2026-04-28 19:02 | 38.76993 | -9.14207 | 354 ft | 83 kts | 21° |
| 2026-04-28 19:02 | 38.77706 | -9.13822 | 363 ft | 138 kts | 22° |
| 2026-04-28 19:02 | 38.78724 | -9.13257 | 461 ft | 173 kts | 22° |
| 2026-04-28 19:03 | 38.79840 | -9.12598 | 997 ft | 181 kts | 24° |
| 2026-04-28 19:03 | 38.80993 | -9.11890 | 1582 ft | 187 kts | 24° |
| 2026-04-28 19:03 | 38.82205 | -9.11073 | 1939 ft | 208 kts | 26° |
| 2026-04-28 19:03 | 38.83522 | -9.10116 | 2336 ft | 233 kts | 29° |
| 2026-04-28 19:04 | 38.84994 | -9.09021 | 2847 ft | 253 kts | 29° |
| 2026-04-28 19:04 | 38.86543 | -9.07851 | 3626 ft | 262 kts | 30° |
| 2026-04-28 19:04 | 38.88126 | -9.06638 | 4493 ft | 268 kts | 31° |
| 2026-04-28 19:04 | 38.89712 | -9.05348 | 5361 ft | 272 kts | 39° |
| 2026-04-28 19:05 | 38.91139 | -9.03731 | 6258 ft | 275 kts | 42° |
| 2026-04-28 19:05 | 38.92564 | -9.02073 | 7121 ft | 278 kts | 43° |
| 2026-04-28 19:05 | 38.93999 | -9.00393 | 7980 ft | 281 kts | 43° |
| 2026-04-28 19:05 | 38.95453 | -8.98688 | 8849 ft | 284 kts | 43° |
| 2026-04-28 19:06 | 38.96919 | -8.96969 | 9711 ft | 287 kts | 43° |
| 2026-04-28 19:06 | 38.97904 | -8.95817 | 10223 ft | 290 kts | 43° |
| 2026-04-28 19:06 | 38.99924 | -8.93454 | 11129 ft | 301 kts | 43° |
| 2026-04-28 19:06 | 39.01532 | -8.91571 | 11381 ft | 324 kts | 43° |
| 2026-04-28 19:07 | 39.03232 | -8.89585 | 11918 ft | 335 kts | 42° |
| 2026-04-28 19:07 | 39.04949 | -8.87579 | 12594 ft | 340 kts | 42° |
| 2026-04-28 19:07 | 39.06714 | -8.85518 | 13301 ft | 346 kts | 42° |
| 2026-04-28 19:07 | 39.08507 | -8.83420 | 13942 ft | 351 kts | 42° |
| 2026-04-28 19:08 | 39.10327 | -8.81286 | 14564 ft | 356 kts | 42° |
| 2026-04-28 19:08 | 39.12166 | -8.79128 | 15184 ft | 360 kts | 43° |
| 2026-04-28 19:08 | 39.14026 | -8.76944 | 15805 ft | 364 kts | 43° |
| 2026-04-28 19:08 | 39.15902 | -8.74738 | 16405 ft | 368 kts | 43° |
| 2026-04-28 19:09 | 39.17694 | -8.72372 | 17021 ft | 371 kts | 49° |
| 2026-04-28 19:09 | 39.19410 | -8.69856 | 17652 ft | 374 kts | 49° |
| 2026-04-28 19:09 | 39.21138 | -8.67325 | 18272 ft | 378 kts | 49° |
| 2026-04-28 19:09 | 39.22880 | -8.64775 | 18807 ft | 381 kts | 49° |
| 2026-04-28 19:10 | 39.24638 | -8.62202 | 19355 ft | 384 kts | 49° |
| 2026-04-28 19:10 | 39.26408 | -8.59608 | 19889 ft | 387 kts | 49° |
| 2026-04-28 19:10 | 39.28193 | -8.56991 | 20417 ft | 390 kts | 50° |
| 2026-04-28 19:10 | 39.29995 | -8.54346 | 20931 ft | 393 kts | 50° |
| 2026-04-28 19:11 | 39.31785 | -8.51712 | 21431 ft | 397 kts | 50° |
| 2026-04-28 19:11 | 39.33613 | -8.49018 | 21916 ft | 400 kts | 50° |
| 2026-04-28 19:11 | 39.35456 | -8.46297 | 22408 ft | 404 kts | 50° |
| 2026-04-28 19:11 | 39.37313 | -8.43555 | 22890 ft | 407 kts | 50° |
| 2026-04-28 19:12 | 39.39185 | -8.40789 | 23356 ft | 411 kts | 50° |
| 2026-04-28 19:12 | 39.41075 | -8.37997 | 23761 ft | 414 kts | 50° |
| 2026-04-28 19:12 | 39.42979 | -8.35186 | 24153 ft | 417 kts | 50° |
| 2026-04-28 19:12 | 39.44894 | -8.32356 | 24570 ft | 419 kts | 50° |
| 2026-04-28 19:13 | 39.46820 | -8.29508 | 24956 ft | 422 kts | 50° |
| 2026-04-28 19:13 | 39.48760 | -8.26636 | 25345 ft | 425 kts | 50° |
| 2026-04-28 19:13 | 39.50709 | -8.23746 | 25732 ft | 427 kts | 50° |
| 2026-04-28 19:13 | 39.52664 | -8.20839 | 26116 ft | 430 kts | 50° |
| 2026-04-28 19:14 | 39.54633 | -8.17905 | 26500 ft | 432 kts | 50° |
| 2026-04-28 19:14 | 39.56609 | -8.14958 | 26878 ft | 434 kts | 50° |
| 2026-04-28 19:14 | 39.58599 | -8.11994 | 27247 ft | 437 kts | 50° |
| 2026-04-28 19:14 | 39.60600 | -8.09012 | 27618 ft | 439 kts | 50° |
| 2026-04-28 19:15 | 39.62580 | -8.06055 | 27904 ft | 442 kts | 50° |
| 2026-04-28 19:15 | 39.64595 | -8.03045 | 28316 ft | 443 kts | 50° |
| 2026-04-28 19:15 | 39.66665 | -8.00037 | 28701 ft | 445 kts | 47° |
| 2026-04-28 19:15 | 39.68103 | -7.98096 | 28949 ft | 446 kts | 46° |
| 2026-04-28 19:16 | 39.71070 | -7.94354 | 29434 ft | 449 kts | 44° |
| 2026-04-28 19:16 | 39.73336 | -7.91613 | 29768 ft | 451 kts | 44° |
| 2026-04-28 19:16 | 39.75643 | -7.88834 | 30081 ft | 454 kts | 44° |
| 2026-04-28 19:16 | 39.77950 | -7.86018 | 30364 ft | 456 kts | 44° |
| 2026-04-28 19:17 | 39.80247 | -7.83159 | 30638 ft | 458 kts | 45° |
| 2026-04-28 19:17 | 39.82537 | -7.80267 | 30915 ft | 460 kts | 45° |
| 2026-04-28 19:17 | 39.84831 | -7.77347 | 31168 ft | 462 kts | 45° |
| 2026-04-28 19:17 | 39.87128 | -7.74414 | 31432 ft | 464 kts | 45° |
| 2026-04-28 19:18 | 39.89431 | -7.71472 | 31803 ft | 463 kts | 45° |
| 2026-04-28 19:18 | 39.91730 | -7.68545 | 32191 ft | 462 kts | 45° |
| 2026-04-28 19:18 | 39.94031 | -7.65617 | 32556 ft | 461 kts | 46° |
| 2026-04-28 19:18 | 39.96324 | -7.62700 | 32928 ft | 460 kts | 46° |
| 2026-04-28 19:19 | 39.98611 | -7.59788 | 33301 ft | 459 kts | 46° |
| 2026-04-28 19:19 | 40.00894 | -7.56878 | 33668 ft | 459 kts | 46° |
| 2026-04-28 19:19 | 40.03181 | -7.53961 | 33852 ft | 460 kts | 46° |
| 2026-04-28 19:19 | 40.05485 | -7.51023 | 33878 ft | 467 kts | 46° |
| 2026-04-28 19:20 | 40.10196 | -7.44998 | 33881 ft | 477 kts | 46° |
| 2026-04-28 19:20 | 40.14915 | -7.38950 | 33880 ft | 479 kts | 46° |
| 2026-04-28 19:21 | 40.19666 | -7.32840 | 33878 ft | 479 kts | 46° |
| 2026-04-28 19:21 | 40.24427 | -7.26708 | 33880 ft | 480 kts | 46° |
| 2026-04-28 19:22 | 40.27610 | -7.22605 | 33879 ft | 480 kts | 45° |
| 2026-04-28 19:22 | 40.33948 | -7.14424 | 33873 ft | 481 kts | 46° |
| 2026-04-28 19:23 | 40.38706 | -7.08254 | 33875 ft | 481 kts | 46° |
| 2026-04-28 19:23 | 40.43468 | -7.02076 | 33872 ft | 482 kts | 46° |
| 2026-04-28 19:24 | 40.48235 | -6.95868 | 33870 ft | 483 kts | 46° |
| 2026-04-28 19:24 | 40.52969 | -6.89687 | 33869 ft | 484 kts | 45° |
| 2026-04-28 19:25 | 40.57741 | -6.83443 | 33870 ft | 484 kts | 45° |
| 2026-04-28 19:25 | 40.62512 | -6.77195 | 33871 ft | 485 kts | 45° |
| 2026-04-28 19:26 | 40.67314 | -6.70900 | 33873 ft | 486 kts | 45° |
| 2026-04-28 19:26 | 40.72084 | -6.64632 | 33877 ft | 487 kts | 45° |
| 2026-04-28 19:27 | 40.76889 | -6.58302 | 33871 ft | 485 kts | 46° |
| 2026-04-28 19:27 | 40.81649 | -6.52018 | 33869 ft | 485 kts | 46° |
| 2026-04-28 19:28 | 40.85616 | -6.46764 | 33869 ft | 486 kts | 46° |
| 2026-04-28 19:28 | 40.90390 | -6.40432 | 33881 ft | 487 kts | 46° |
| 2026-04-28 19:29 | 40.94366 | -6.35151 | 33882 ft | 487 kts | 46° |
| 2026-04-28 19:29 | 40.99971 | -6.27717 | 33888 ft | 488 kts | 45° |
| 2026-04-28 19:30 | 41.04957 | -6.21621 | 33895 ft | 488 kts | 42° |
| 2026-04-28 19:30 | 41.10074 | -6.15693 | 33897 ft | 488 kts | 41° |
| 2026-04-28 19:31 | 41.15169 | -6.09718 | 33901 ft | 488 kts | 42° |
| 2026-04-28 19:31 | 41.20475 | -6.04249 | 33904 ft | 487 kts | 26° |
| 2026-04-28 19:32 | 41.26633 | -6.00364 | 33898 ft | 487 kts | 24° |
| 2026-04-28 19:32 | 41.32722 | -5.96582 | 33902 ft | 486 kts | 24° |
| 2026-04-28 19:33 | 41.38849 | -5.92779 | 33904 ft | 486 kts | 24° |
| 2026-04-28 19:33 | 41.44958 | -5.88946 | 33900 ft | 485 kts | 24° |
| 2026-04-28 19:34 | 41.51062 | -5.85099 | 33906 ft | 485 kts | 24° |
| 2026-04-28 19:34 | 41.57160 | -5.81260 | 33910 ft | 484 kts | 24° |
| 2026-04-28 19:35 | 41.63249 | -5.77425 | 33912 ft | 484 kts | 24° |
| 2026-04-28 19:35 | 41.69329 | -5.73580 | 33915 ft | 483 kts | 24° |
| 2026-04-28 19:36 | 41.75409 | -5.69734 | 33915 ft | 483 kts | 24° |
| 2026-04-28 19:36 | 41.81443 | -5.65913 | 33916 ft | 482 kts | 24° |
| 2026-04-28 19:37 | 41.86528 | -5.62682 | 33912 ft | 482 kts | 24° |
| 2026-04-28 19:37 | 41.93606 | -5.58172 | 33918 ft | 483 kts | 24° |
| 2026-04-28 19:38 | 41.99670 | -5.54298 | 33917 ft | 483 kts | 24° |
| 2026-04-28 19:38 | 42.05740 | -5.50410 | 33918 ft | 483 kts | 24° |
| 2026-04-28 19:39 | 42.11771 | -5.46535 | 33912 ft | 484 kts | 24° |
| 2026-04-28 19:39 | 42.17855 | -5.42626 | 33911 ft | 484 kts | 24° |
| 2026-04-28 19:40 | 42.23942 | -5.38708 | 33913 ft | 485 kts | 24° |
| 2026-04-28 19:40 | 42.30027 | -5.34772 | 33914 ft | 485 kts | 24° |
| 2026-04-28 19:41 | 42.36121 | -5.30837 | 33917 ft | 485 kts | 24° |
| 2026-04-28 19:41 | 42.42216 | -5.26894 | 33926 ft | 485 kts | 24° |
| 2026-04-28 19:42 | 42.48305 | -5.22939 | 33923 ft | 486 kts | 24° |
| 2026-04-28 19:42 | 42.53371 | -5.19642 | 33927 ft | 486 kts | 24° |
| 2026-04-28 19:43 | 42.60500 | -5.14986 | 33929 ft | 487 kts | 24° |
| 2026-04-28 19:43 | 42.66608 | -5.10991 | 33928 ft | 487 kts | 24° |
| 2026-04-28 19:44 | 42.72721 | -5.06986 | 33930 ft | 488 kts | 24° |
| 2026-04-28 19:44 | 42.78836 | -5.02973 | 33936 ft | 489 kts | 24° |
| 2026-04-28 19:45 | 42.84922 | -4.98965 | 33940 ft | 489 kts | 24° |
| 2026-04-28 19:45 | 42.91054 | -4.94919 | 33942 ft | 490 kts | 24° |
| 2026-04-28 19:46 | 42.97193 | -4.90856 | 33944 ft | 491 kts | 24° |
| 2026-04-28 19:46 | 43.03350 | -4.86781 | 33950 ft | 491 kts | 24° |
| 2026-04-28 19:47 | 43.09505 | -4.82702 | 33959 ft | 492 kts | 24° |
| 2026-04-28 19:47 | 43.15659 | -4.78600 | 33961 ft | 492 kts | 24° |
| 2026-04-28 19:48 | 43.21818 | -4.74485 | 33972 ft | 492 kts | 23° |
| 2026-04-28 19:48 | 43.27979 | -4.70366 | 33978 ft | 493 kts | 23° |
| 2026-04-28 19:49 | 43.34141 | -4.66235 | 33975 ft | 493 kts | 23° |
| 2026-04-28 19:49 | 43.40311 | -4.62095 | 33978 ft | 493 kts | 23° |
| 2026-04-28 19:50 | 43.49578 | -4.55860 | 33976 ft | 494 kts | 23° |
| 2026-04-28 19:51 | 43.55723 | -4.51714 | 33972 ft | 495 kts | 23° |
| 2026-04-28 19:51 | 43.61913 | -4.47513 | 34027 ft | 498 kts | 23° |
| 2026-04-28 19:51 | 43.65019 | -4.45400 | 34276 ft | 498 kts | 23° |
| 2026-04-28 19:52 | 43.68125 | -4.43286 | 34565 ft | 497 kts | 23° |
| 2026-04-28 19:52 | 43.71223 | -4.41184 | 34866 ft | 496 kts | 23° |
| 2026-04-28 19:52 | 43.74315 | -4.39086 | 35166 ft | 494 kts | 23° |
| 2026-04-28 19:52 | 43.77401 | -4.36989 | 35473 ft | 493 kts | 22° |
| 2026-04-28 19:53 | 43.80476 | -4.34894 | 35765 ft | 492 kts | 22° |
| 2026-04-28 19:53 | 43.83540 | -4.32800 | 35950 ft | 491 kts | 23° |
| 2026-04-28 19:53 | 43.86598 | -4.30704 | 35987 ft | 490 kts | 23° |
| 2026-04-28 19:54 | 43.92707 | -4.26520 | 35988 ft | 489 kts | 22° |
| 2026-04-28 19:54 | 43.98811 | -4.22332 | 35987 ft | 490 kts | 23° |
| 2026-04-28 19:55 | 44.04917 | -4.18123 | 35986 ft | 490 kts | 23° |
| 2026-04-28 19:55 | 44.11026 | -4.13907 | 35992 ft | 490 kts | 23° |
| 2026-04-28 19:56 | 44.17106 | -4.09705 | 36002 ft | 491 kts | 23° |
| 2026-04-28 19:56 | 44.23235 | -4.05458 | 36003 ft | 492 kts | 23° |
| 2026-04-28 19:57 | 44.29351 | -4.01209 | 36006 ft | 492 kts | 23° |
| 2026-04-28 19:57 | 44.35334 | -3.96408 | 36002 ft | 496 kts | 32° |
| 2026-04-28 19:58 | 44.41013 | -3.90935 | 36002 ft | 496 kts | 31° |
| 2026-04-28 19:58 | 44.46707 | -3.85447 | 36001 ft | 497 kts | 32° |
| 2026-04-28 19:59 | 44.52376 | -3.79967 | 35998 ft | 497 kts | 32° |
| 2026-04-28 19:59 | 44.58042 | -3.74473 | 35999 ft | 497 kts | 32° |
| 2026-04-28 20:00 | 44.63726 | -3.68943 | 35999 ft | 498 kts | 32° |
| 2026-04-28 20:00 | 44.69453 | -3.63371 | 36002 ft | 498 kts | 32° |
| 2026-04-28 20:01 | 44.75107 | -3.57840 | 36000 ft | 499 kts | 32° |
| 2026-04-28 20:01 | 44.80837 | -3.52216 | 35999 ft | 499 kts | 32° |
| 2026-04-28 20:02 | 44.86515 | -3.46644 | 35996 ft | 499 kts | 32° |
| 2026-04-28 20:02 | 44.92199 | -3.41072 | 35998 ft | 500 kts | 32° |
| 2026-04-28 20:03 | 44.97909 | -3.35445 | 36000 ft | 500 kts | 32° |
| 2026-04-28 20:03 | 45.03621 | -3.29792 | 36004 ft | 500 kts | 32° |
| 2026-04-28 20:04 | 45.09321 | -3.24138 | 36001 ft | 500 kts | 32° |
| 2026-04-28 20:04 | 45.15011 | -3.18479 | 35998 ft | 501 kts | 32° |
| 2026-04-28 20:05 | 45.20697 | -3.12808 | 35990 ft | 501 kts | 32° |
| 2026-04-28 20:05 | 45.26392 | -3.07126 | 35995 ft | 501 kts | 32° |
| 2026-04-28 20:06 | 45.32037 | -3.01243 | 35990 ft | 504 kts | 39° |
| 2026-04-28 20:06 | 45.36959 | -2.94148 | 35990 ft | 506 kts | 44° |
| 2026-04-28 20:07 | 45.41869 | -2.86923 | 35994 ft | 507 kts | 44° |
| 2026-04-28 20:07 | 45.46770 | -2.79711 | 35996 ft | 507 kts | 44° |
| 2026-04-28 20:08 | 45.51662 | -2.72490 | 35997 ft | 507 kts | 44° |
| 2026-04-28 20:08 | 45.56535 | -2.65259 | 35991 ft | 507 kts | 44° |
| 2026-04-28 20:09 | 45.61418 | -2.57994 | 35989 ft | 507 kts | 44° |
| 2026-04-28 20:09 | 45.66279 | -2.50766 | 35990 ft | 507 kts | 44° |
| 2026-04-28 20:10 | 45.71179 | -2.43456 | 35992 ft | 507 kts | 44° |
| 2026-04-28 20:10 | 45.76058 | -2.36156 | 35992 ft | 507 kts | 44° |
| 2026-04-28 20:11 | 45.80914 | -2.28862 | 35994 ft | 507 kts | 45° |
| 2026-04-28 20:11 | 45.85770 | -2.21559 | 35990 ft | 507 kts | 45° |
| 2026-04-28 20:12 | 45.90649 | -2.14198 | 35989 ft | 508 kts | 45° |
| 2026-04-28 20:12 | 45.95485 | -2.06876 | 35989 ft | 508 kts | 45° |
| 2026-04-28 20:13 | 46.00477 | -1.99652 | 35993 ft | 506 kts | 37° |
| 2026-04-28 20:13 | 46.06180 | -1.93782 | 35990 ft | 504 kts | 32° |
| 2026-04-28 20:14 | 46.11929 | -1.87998 | 35989 ft | 504 kts | 32° |
| 2026-04-28 20:14 | 46.17643 | -1.82227 | 35993 ft | 504 kts | 32° |
| 2026-04-28 20:15 | 46.23412 | -1.76390 | 35997 ft | 504 kts | 32° |
| 2026-04-28 20:15 | 46.29132 | -1.70593 | 35998 ft | 504 kts | 32° |
| 2026-04-28 20:16 | 46.34889 | -1.64729 | 35997 ft | 504 kts | 33° |
| 2026-04-28 20:16 | 46.40605 | -1.58889 | 35996 ft | 504 kts | 33° |
| 2026-04-28 20:17 | 46.46339 | -1.53013 | 36001 ft | 505 kts | 33° |
| 2026-04-28 20:17 | 46.52074 | -1.47123 | 36006 ft | 505 kts | 33° |
| 2026-04-28 20:18 | 46.57780 | -1.41261 | 36014 ft | 505 kts | 33° |
| 2026-04-28 20:18 | 46.62900 | -1.34254 | 36017 ft | 507 kts | 47° |
| 2026-04-28 20:19 | 46.67593 | -1.26660 | 36014 ft | 507 kts | 47° |
| 2026-04-28 20:19 | 46.72330 | -1.19021 | 36012 ft | 507 kts | 47° |
| 2026-04-28 20:20 | 46.77056 | -1.11392 | 36006 ft | 507 kts | 47° |
| 2026-04-28 20:20 | 46.81009 | -1.04968 | 36003 ft | 507 kts | 47° |
| 2026-04-28 20:21 | 46.86465 | -0.96058 | 36002 ft | 508 kts | 47° |
| 2026-04-28 20:21 | 46.90417 | -0.89605 | 36003 ft | 508 kts | 47° |
| 2026-04-28 20:22 | 46.95094 | -0.81954 | 36002 ft | 508 kts | 48° |
| 2026-04-28 20:22 | 46.99824 | -0.74187 | 36008 ft | 508 kts | 48° |
| 2026-04-28 20:23 | 47.04489 | -0.66495 | 36006 ft | 508 kts | 48° |
| 2026-04-28 20:23 | 47.09187 | -0.58713 | 36013 ft | 508 kts | 48° |
| 2026-04-28 20:24 | 47.13881 | -0.50934 | 36015 ft | 508 kts | 48° |
| 2026-04-28 20:24 | 47.18535 | -0.43213 | 36011 ft | 508 kts | 48° |
| 2026-04-28 20:25 | 47.23221 | -0.35397 | 36020 ft | 507 kts | 49° |
| 2026-04-28 20:25 | 47.28051 | -0.27835 | 36023 ft | 507 kts | 44° |
| 2026-04-28 20:26 | 47.33163 | -0.20670 | 36028 ft | 507 kts | 42° |
| 2026-04-28 20:26 | 47.38296 | -0.13558 | 36032 ft | 506 kts | 43° |
| 2026-04-28 20:27 | 47.43338 | -0.06289 | 36033 ft | 506 kts | 44° |
| 2026-04-28 20:27 | 47.48296 | 0.01013 | 36029 ft | 506 kts | 45° |
| 2026-04-28 20:28 | 47.53293 | 0.08344 | 36029 ft | 506 kts | 44° |
| 2026-04-28 20:28 | 47.58301 | 0.15655 | 36032 ft | 505 kts | 44° |
| 2026-04-28 20:29 | 47.63310 | 0.22972 | 36037 ft | 505 kts | 44° |
| 2026-04-28 20:29 | 47.68299 | 0.30306 | 36045 ft | 505 kts | 45° |
| 2026-04-28 20:30 | 47.73273 | 0.37654 | 36051 ft | 504 kts | 45° |
| 2026-04-28 20:30 | 47.78241 | 0.45015 | 36056 ft | 504 kts | 45° |
| 2026-04-28 20:31 | 47.83208 | 0.52390 | 36053 ft | 503 kts | 45° |
| 2026-04-28 20:31 | 47.88156 | 0.59753 | 36055 ft | 503 kts | 45° |
| 2026-04-28 20:32 | 47.93096 | 0.67108 | 36049 ft | 503 kts | 45° |
| 2026-04-28 20:32 | 47.97996 | 0.74441 | 36046 ft | 502 kts | 45° |
| 2026-04-28 20:33 | 48.02942 | 0.81872 | 36047 ft | 502 kts | 45° |
| 2026-04-28 20:33 | 48.07864 | 0.89277 | 36046 ft | 502 kts | 45° |
| 2026-04-28 20:34 | 48.12781 | 0.96689 | 36046 ft | 502 kts | 45° |
| 2026-04-28 20:34 | 48.17656 | 1.04066 | 36051 ft | 501 kts | 45° |
| 2026-04-28 20:35 | 48.22455 | 1.11631 | 36049 ft | 500 kts | 51° |
| 2026-04-28 20:35 | 48.26866 | 1.19723 | 36050 ft | 500 kts | 51° |
| 2026-04-28 20:36 | 48.31270 | 1.27809 | 36052 ft | 500 kts | 51° |
| 2026-04-28 20:36 | 48.35660 | 1.35906 | 36055 ft | 500 kts | 51° |
| 2026-04-28 20:37 | 48.40046 | 1.44010 | 36056 ft | 499 kts | 51° |
| 2026-04-28 20:37 | 48.44426 | 1.52118 | 36056 ft | 499 kts | 51° |
| 2026-04-28 20:38 | 48.48796 | 1.60252 | 36058 ft | 499 kts | 52° |
| 2026-04-28 20:38 | 48.53152 | 1.68390 | 36063 ft | 498 kts | 51° |
| 2026-04-28 20:39 | 48.57504 | 1.76524 | 36062 ft | 497 kts | 51° |
| 2026-04-28 20:39 | 48.61818 | 1.84598 | 36069 ft | 497 kts | 52° |
| 2026-04-28 20:40 | 48.66138 | 1.92743 | 36069 ft | 496 kts | 52° |
| 2026-04-28 20:40 | 48.70449 | 2.00901 | 36067 ft | 495 kts | 52° |
| 2026-04-28 20:41 | 48.74664 | 2.09135 | 36068 ft | 494 kts | 58° |
| 2026-04-28 20:41 | 48.77598 | 2.18491 | 36064 ft | 491 kts | 70° |
| 2026-04-28 20:42 | 48.80160 | 2.28107 | 36060 ft | 491 kts | 70° |
| 2026-04-28 20:42 | 48.82718 | 2.37705 | 36051 ft | 491 kts | 70° |
| 2026-04-28 20:43 | 48.85268 | 2.47334 | 36051 ft | 492 kts | 69° |
| 2026-04-28 20:43 | 48.87797 | 2.56915 | 36048 ft | 492 kts | 70° |
| 2026-04-28 20:44 | 48.90335 | 2.66565 | 36070 ft | 492 kts | 70° |
| 2026-04-28 20:44 | 48.92866 | 2.76241 | 36068 ft | 493 kts | 70° |
| 2026-04-28 20:45 | 48.95389 | 2.85931 | 36062 ft | 493 kts | 70° |
| 2026-04-28 20:45 | 48.97917 | 2.95664 | 35660 ft | 494 kts | 70° |
| 2026-04-28 20:45 | 48.99182 | 3.00546 | 35416 ft | 496 kts | 70° |
| 2026-04-28 20:46 | 49.00444 | 3.05432 | 35171 ft | 497 kts | 70° |
| 2026-04-28 20:46 | 49.01708 | 3.10345 | 34923 ft | 499 kts | 70° |
| 2026-04-28 20:46 | 49.02972 | 3.15267 | 34683 ft | 500 kts | 70° |
| 2026-04-28 20:46 | 49.04238 | 3.20210 | 34452 ft | 502 kts | 70° |
| 2026-04-28 20:47 | 49.05510 | 3.25188 | 34215 ft | 503 kts | 70° |
| 2026-04-28 20:47 | 49.06781 | 3.30165 | 33966 ft | 505 kts | 70° |
| 2026-04-28 20:47 | 49.08053 | 3.35158 | 33692 ft | 506 kts | 70° |
| 2026-04-28 20:47 | 49.09325 | 3.40169 | 33422 ft | 506 kts | 70° |
| 2026-04-28 20:48 | 49.10593 | 3.45183 | 33145 ft | 507 kts | 70° |
| 2026-04-28 20:48 | 49.11846 | 3.50134 | 32875 ft | 507 kts | 70° |
| 2026-04-28 20:48 | 49.13133 | 3.55220 | 32360 ft | 507 kts | 70° |
| 2026-04-28 20:48 | 49.14204 | 3.60268 | 31757 ft | 505 kts | 77° |
| 2026-04-28 20:49 | 49.15085 | 3.65461 | 31207 ft | 506 kts | 77° |
| 2026-04-28 20:49 | 49.15972 | 3.70667 | 30646 ft | 506 kts | 77° |
| 2026-04-28 20:49 | 49.16861 | 3.75872 | 30089 ft | 507 kts | 77° |
| 2026-04-28 20:49 | 49.17752 | 3.81096 | 29504 ft | 507 kts | 77° |
| 2026-04-28 20:50 | 49.18638 | 3.86300 | 28975 ft | 506 kts | 77° |
| 2026-04-28 20:50 | 49.19521 | 3.91509 | 28444 ft | 505 kts | 77° |
| 2026-04-28 20:50 | 49.20391 | 3.96697 | 27924 ft | 503 kts | 77° |
| 2026-04-28 20:50 | 49.21253 | 4.01871 | 27368 ft | 502 kts | 77° |
| 2026-04-28 20:51 | 49.22108 | 4.07041 | 26823 ft | 500 kts | 77° |
| 2026-04-28 20:51 | 49.22962 | 4.12191 | 26236 ft | 498 kts | 76° |
| 2026-04-28 20:51 | 49.23816 | 4.17318 | 25647 ft | 496 kts | 76° |
| 2026-04-28 20:51 | 49.24379 | 4.20699 | 25249 ft | 494 kts | 76° |
| 2026-04-28 20:52 | 49.25505 | 4.27513 | 24427 ft | 493 kts | 76° |
| 2026-04-28 20:52 | 49.26338 | 4.32590 | 23797 ft | 492 kts | 76° |
| 2026-04-28 20:52 | 49.27170 | 4.37660 | 23056 ft | 488 kts | 76° |
| 2026-04-28 20:52 | 49.27991 | 4.42675 | 21992 ft | 483 kts | 76° |
| 2026-04-28 20:53 | 49.29572 | 4.52416 | 20805 ft | 467 kts | 77° |
| 2026-04-28 20:53 | 49.30341 | 4.57190 | 20344 ft | 453 kts | 77° |
| 2026-04-28 20:53 | 49.31073 | 4.61718 | 19971 ft | 423 kts | 77° |
| 2026-04-28 20:54 | 49.31763 | 4.65984 | 19574 ft | 404 kts | 77° |
| 2026-04-28 20:54 | 49.32421 | 4.70069 | 19121 ft | 398 kts | 77° |
| 2026-04-28 20:54 | 49.33077 | 4.74154 | 18680 ft | 393 kts | 77° |
| 2026-04-28 20:54 | 49.33725 | 4.78214 | 18192 ft | 389 kts | 77° |
| 2026-04-28 20:55 | 49.34363 | 4.82230 | 17690 ft | 385 kts | 77° |
| 2026-04-28 20:55 | 49.34994 | 4.86197 | 17186 ft | 381 kts | 77° |
| 2026-04-28 20:55 | 49.35618 | 4.90123 | 16691 ft | 377 kts | 77° |
| 2026-04-28 20:55 | 49.36235 | 4.94014 | 16203 ft | 373 kts | 77° |
| 2026-04-28 20:56 | 49.36841 | 4.97857 | 15723 ft | 369 kts | 77° |
| 2026-04-28 20:56 | 49.37439 | 5.01654 | 15250 ft | 364 kts | 77° |
| 2026-04-28 20:56 | 49.38027 | 5.05413 | 14808 ft | 360 kts | 77° |
| 2026-04-28 20:56 | 49.38608 | 5.09130 | 14491 ft | 357 kts | 77° |
| 2026-04-28 20:57 | 49.39209 | 5.12801 | 14177 ft | 354 kts | 73° |
| 2026-04-28 20:57 | 49.39985 | 5.16381 | 13793 ft | 351 kts | 72° |
| 2026-04-28 20:57 | 49.40752 | 5.19902 | 13340 ft | 345 kts | 72° |
| 2026-04-28 20:57 | 49.41505 | 5.23371 | 12892 ft | 340 kts | 72° |
| 2026-04-28 20:58 | 49.42248 | 5.26789 | 12450 ft | 335 kts | 72° |
| 2026-04-28 20:58 | 49.42980 | 5.30155 | 12014 ft | 330 kts | 72° |
| 2026-04-28 20:58 | 49.43701 | 5.33485 | 11586 ft | 326 kts | 72° |
| 2026-04-28 20:58 | 49.44411 | 5.36767 | 11167 ft | 320 kts | 72° |
| 2026-04-28 20:59 | 49.45096 | 5.39932 | 10730 ft | 304 kts | 72° |
| 2026-04-28 20:59 | 49.45749 | 5.42951 | 10336 ft | 291 kts | 72° |
| 2026-04-28 20:59 | 49.46375 | 5.45852 | 9921 ft | 282 kts | 72° |
| 2026-04-28 20:59 | 49.46979 | 5.48653 | 9482 ft | 280 kts | 73° |
| 2026-04-28 21:00 | 49.47582 | 5.51454 | 9036 ft | 279 kts | 73° |
| 2026-04-28 21:00 | 49.48186 | 5.54254 | 8596 ft | 273 kts | 73° |
| 2026-04-28 21:00 | 49.48716 | 5.57030 | 8166 ft | 268 kts | 81° |
| 2026-04-28 21:00 | 49.48935 | 5.59850 | 7737 ft | 265 kts | 85° |
| 2026-04-28 21:01 | 49.49133 | 5.62653 | 7321 ft | 262 kts | 85° |
| 2026-04-28 21:01 | 49.49331 | 5.65413 | 6900 ft | 257 kts | 85° |
| 2026-04-28 21:01 | 49.49525 | 5.68116 | 6486 ft | 252 kts | 85° |
| 2026-04-28 21:01 | 49.49714 | 5.70775 | 6054 ft | 247 kts | 85° |
| 2026-04-28 21:02 | 49.49899 | 5.73379 | 5618 ft | 242 kts | 85° |
| 2026-04-28 21:02 | 49.50079 | 5.75928 | 5251 ft | 236 kts | 85° |
| 2026-04-28 21:02 | 49.50253 | 5.78389 | 4958 ft | 227 kts | 85° |
| 2026-04-28 21:02 | 49.50419 | 5.80760 | 4666 ft | 218 kts | 86° |
| 2026-04-28 21:03 | 49.50581 | 5.83041 | 4405 ft | 210 kts | 86° |
| 2026-04-28 21:03 | 49.50737 | 5.85227 | 4163 ft | 201 kts | 85° |
| 2026-04-28 21:03 | 49.50886 | 5.87340 | 3916 ft | 201 kts | 85° |
| 2026-04-28 21:03 | 49.51085 | 5.89463 | 3668 ft | 205 kts | 78° |
| 2026-04-28 21:04 | 49.51592 | 5.91503 | 3419 ft | 206 kts | 65° |
| 2026-04-28 21:04 | 49.52304 | 5.93406 | 3166 ft | 204 kts | 64° |
| 2026-04-28 21:04 | 49.52991 | 5.95304 | 3028 ft | 203 kts | 64° |
| 2026-04-28 21:04 | 49.53691 | 5.97195 | 2998 ft | 203 kts | 64° |
| 2026-04-28 21:05 | 49.54393 | 5.99073 | 3002 ft | 200 kts | 64° |
| 2026-04-28 21:05 | 49.55070 | 6.00872 | 3005 ft | 189 kts | 64° |
| 2026-04-28 21:05 | 49.55710 | 6.02578 | 3021 ft | 175 kts | 63° |
| 2026-04-28 21:05 | 49.56300 | 6.04152 | 3017 ft | 166 kts | 64° |
| 2026-04-28 21:06 | 49.56869 | 6.05674 | 2993 ft | 162 kts | 64° |
| 2026-04-28 21:06 | 49.57427 | 6.07167 | 2875 ft | 158 kts | 64° |
| 2026-04-28 21:06 | 49.57944 | 6.08542 | 2714 ft | 139 kts | 64° |
| 2026-04-28 21:06 | 49.58391 | 6.09737 | 2543 ft | 122 kts | 64° |
| 2026-04-28 21:07 | 49.58802 | 6.10839 | 2392 ft | 116 kts | 63° |
| 2026-04-28 21:07 | 49.59065 | 6.11545 | 2294 ft | 113 kts | 63° |
| 2026-04-28 21:07 | 49.59581 | 6.12929 | 2086 ft | 111 kts | 63° |
| 2026-04-28 21:07 | 49.59972 | 6.13978 | 1918 ft | 114 kts | 62° |
| 2026-04-28 21:08 | 49.60380 | 6.15073 | 1755 ft | 122 kts | 61° |
| 2026-04-28 21:08 | 49.60805 | 6.16216 | 1591 ft | 126 kts | 58° |
| 2026-04-28 21:08 | 49.61249 | 6.17408 | 1414 ft | 127 kts | 57° |
| 2026-04-28 21:08 | 49.61687 | 6.18567 | 1229 ft | 126 kts | 59° |
| 2026-04-28 21:09 | 49.62108 | 6.19716 | 1184 ft | 113 kts | 60° |
| 2026-04-28 21:09 | 49.62421 | 6.20555 | 1187 ft | 65 kts | 60° |
| 2026-04-28 21:09 | 49.62568 | 6.20946 | 1196 ft | 27 kts | 57° |
| 2026-04-28 21:09 | 49.62692 | 6.21131 | 1198 ft | 23 kts | 34° |
| 2026-04-28 21:10 | 49.62823 | 6.21253 | 1200 ft | 22 kts | 31° |
| 2026-04-28 21:10 | 49.62950 | 6.21367 | 1203 ft | 20 kts | 32° |
| 2026-04-28 21:10 | 49.63038 | 6.21516 | 1205 ft | 20 kts | 63° |
| 2026-04-28 21:10 | 49.63095 | 6.21701 | 1208 ft | 19 kts | 67° |
| 2026-04-28 21:11 | 49.63172 | 6.21745 | 1211 ft | 13 kts | 333° |
| 2026-04-28 21:11 | 49.63243 | 6.21680 | 1216 ft | 9 kts | 332° |
| 2026-04-28 21:11 | 49.63275 | 6.21665 | 1218 ft | 6 kts | 347° |
| 2026-04-28 21:11 | 49.63301 | 6.21658 | 1220 ft | 2 kts | 351° |
| 2026-04-28 21:12 | 49.63329 | 6.21640 | 1221 ft | 6 kts | 333° |
| 2026-04-28 21:12 | 49.63340 | 6.21631 | 1222 ft | 0 kts | 332° |
| 2026-04-28 21:13 | 49.63344 | 6.21692 | 1222 ft | 0 kts | 328° |